createdAt,value
2018-04-08T00:00:01.368Z,7.26
2018-04-08T00:00:13.551Z,7.26
2018-04-08T00:00:25.726Z,7.26
2018-04-08T00:00:37.923Z,7.26
2018-04-08T00:00:50.069Z,7.26
2018-04-08T00:01:02.220Z,7.26
2018-04-08T00:01:14.385Z,7.26
2018-04-08T00:01:26.531Z,7.26
2018-04-08T00:01:38.872Z,7.26
2018-04-08T00:01:51.031Z,7.26
2018-04-08T00:02:03.290Z,7.26
2018-04-08T00:02:15.502Z,7.26
2018-04-08T00:02:27.633Z,7.26
2018-04-08T00:02:39.762Z,7.26
2018-04-08T00:02:51.893Z,7.26
2018-04-08T00:03:04.064Z,7.26
2018-04-08T00:03:16.202Z,7.26
2018-04-08T00:03:28.347Z,7.26
2018-04-08T00:03:40.488Z,7.26
2018-04-08T00:03:52.668Z,7.26
2018-04-08T00:04:04.838Z,7.26
2018-04-08T00:04:16.972Z,7.26
2018-04-08T00:04:29.126Z,7.26
2018-04-08T00:04:41.278Z,7.26
2018-04-08T00:04:53.427Z,7.26
2018-04-08T00:05:05.587Z,7.26
2018-04-08T00:05:17.783Z,7.26
2018-04-08T00:05:29.934Z,7.35
2018-04-08T00:05:42.063Z,7.35
2018-04-08T00:05:54.220Z,7.35
2018-04-08T00:06:06.382Z,7.35
2018-04-08T00:06:18.534Z,7.35
2018-04-08T00:06:30.744Z,7.35
2018-04-08T00:06:42.904Z,7.35
2018-04-08T00:06:55.060Z,7.35
2018-04-08T00:07:07.214Z,7.35
2018-04-08T00:07:19.385Z,7.35
2018-04-08T00:07:31.533Z,7.35
2018-04-08T00:07:43.682Z,7.35
2018-04-08T00:07:55.826Z,7.35
2018-04-08T00:08:07.977Z,7.35
2018-04-08T00:08:20.165Z,7.35
2018-04-08T00:08:32.351Z,7.35
2018-04-08T00:08:44.490Z,7.35
2018-04-08T00:08:56.649Z,7.35
2018-04-08T00:09:08.818Z,7.35
2018-04-08T00:09:20.985Z,7.35
2018-04-08T00:09:33.146Z,7.35
2018-04-08T00:09:45.299Z,7.35
2018-04-08T00:09:57.485Z,7.35
2018-04-08T00:10:09.666Z,7.35
2018-04-08T00:10:21.823Z,7.35
2018-04-08T00:10:33.965Z,7.35
2018-04-08T00:10:46.114Z,7.35
2018-04-08T00:10:58.257Z,7.35
2018-04-08T00:11:10.615Z,7.35
2018-04-08T00:11:22.808Z,7.35
2018-04-08T00:11:34.927Z,7.35
2018-04-08T00:11:47.077Z,7.35
2018-04-08T00:11:59.229Z,7.35
2018-04-08T00:12:11.374Z,7.35
2018-04-08T00:12:23.555Z,7.35
2018-04-08T00:12:35.696Z,7.35
2018-04-08T00:12:48.182Z,7.35
2018-04-08T00:13:00.324Z,7.35
2018-04-08T00:13:12.646Z,7.35
2018-04-08T00:13:24.795Z,7.35
2018-04-08T00:13:36.938Z,7.35
2018-04-08T00:13:49.381Z,7.35
2018-04-08T00:14:01.606Z,7.35
2018-04-08T00:14:13.764Z,7.35
2018-04-08T00:14:25.910Z,7.35
2018-04-08T00:14:38.069Z,7.35
2018-04-08T00:14:50.231Z,7.35
2018-04-08T00:15:02.378Z,7.35
2018-04-08T00:15:14.532Z,7.35
2018-04-08T00:15:26.668Z,6.87
2018-04-08T00:15:38.819Z,6.87
2018-04-08T00:15:50.946Z,6.87
2018-04-08T00:16:03.094Z,6.87
2018-04-08T00:16:15.224Z,6.87
2018-04-08T00:16:27.353Z,6.87
2018-04-08T00:16:39.493Z,6.87
2018-04-08T00:16:51.626Z,6.87
2018-04-08T00:17:03.819Z,6.87
2018-04-08T00:17:15.958Z,6.87
2018-04-08T00:17:28.100Z,6.87
2018-04-08T00:17:40.237Z,6.87
2018-04-08T00:17:52.672Z,6.87
2018-04-08T00:18:04.821Z,6.87
2018-04-08T00:18:16.988Z,6.87
2018-04-08T00:18:29.133Z,6.87
2018-04-08T00:18:41.282Z,6.87
2018-04-08T00:18:53.412Z,6.87
2018-04-08T00:19:05.568Z,6.87
2018-04-08T00:19:17.708Z,6.87
2018-04-08T00:19:29.878Z,6.87
2018-04-08T00:19:42.002Z,6.87
2018-04-08T00:19:54.163Z,6.87
2018-04-08T00:20:06.308Z,6.87
2018-04-08T00:20:18.429Z,6.87
2018-04-08T00:20:30.598Z,6.87
2018-04-08T00:20:42.722Z,6.87
2018-04-08T00:20:54.854Z,6.87
2018-04-08T00:21:07.023Z,6.87
2018-04-08T00:21:19.170Z,6.87
2018-04-08T00:21:31.334Z,6.87
2018-04-08T00:21:43.517Z,6.87
2018-04-08T00:21:55.666Z,6.87
2018-04-08T00:22:07.827Z,6.87
2018-04-08T00:22:20.008Z,6.87
2018-04-08T00:22:32.148Z,6.87
2018-04-08T00:22:44.311Z,6.87
2018-04-08T00:22:56.805Z,6.87
2018-04-08T00:23:09.073Z,6.87
2018-04-08T00:23:21.509Z,6.87
2018-04-08T00:23:33.645Z,6.87
2018-04-08T00:23:45.804Z,6.87
2018-04-08T00:23:57.934Z,6.87
2018-04-08T00:24:10.135Z,6.87
2018-04-08T00:24:22.309Z,6.87
2018-04-08T00:24:34.462Z,6.87
2018-04-08T00:24:46.616Z,6.87
2018-04-08T00:24:58.744Z,6.87
2018-04-08T00:25:10.874Z,6.87
2018-04-08T00:25:23.005Z,7.17
2018-04-08T00:25:35.152Z,7.17
2018-04-08T00:25:47.296Z,7.17
2018-04-08T00:25:59.461Z,7.17
2018-04-08T00:26:11.612Z,7.17
2018-04-08T00:26:23.753Z,7.17
2018-04-08T00:26:35.903Z,7.17
2018-04-08T00:26:48.050Z,7.17
2018-04-08T00:27:00.216Z,7.17
2018-04-08T00:27:12.340Z,7.17
2018-04-08T00:27:24.491Z,7.17
2018-04-08T00:27:36.711Z,7.17
2018-04-08T00:27:48.858Z,7.17
2018-04-08T00:28:01.061Z,7.17
2018-04-08T00:28:13.260Z,7.17
2018-04-08T00:28:25.424Z,7.17
2018-04-08T00:28:37.589Z,7.17
2018-04-08T00:28:49.750Z,7.17
2018-04-08T00:29:01.908Z,7.17
2018-04-08T00:29:14.074Z,7.17
2018-04-08T00:29:26.236Z,7.17
2018-04-08T00:29:38.373Z,7.17
2018-04-08T00:29:50.521Z,7.17
2018-04-08T00:30:02.690Z,7.17
2018-04-08T00:30:14.834Z,7.17
2018-04-08T00:30:26.968Z,7.17
2018-04-08T00:30:39.124Z,7.17
2018-04-08T00:30:51.279Z,7.17
2018-04-08T00:31:03.440Z,7.17
2018-04-08T00:31:15.621Z,7.17
2018-04-08T00:31:27.763Z,7.17
2018-04-08T00:31:39.905Z,7.17
2018-04-08T00:31:52.067Z,7.17
2018-04-08T00:32:04.209Z,7.17
2018-04-08T00:32:16.424Z,7.17
2018-04-08T00:32:28.583Z,7.17
2018-04-08T00:32:40.708Z,7.17
2018-04-08T00:32:52.857Z,7.17
2018-04-08T00:33:04.998Z,7.17
2018-04-08T00:33:17.236Z,7.17
2018-04-08T00:33:29.376Z,7.17
2018-04-08T00:33:41.538Z,7.17
2018-04-08T00:33:53.675Z,7.17
2018-04-08T00:34:05.981Z,7.17
2018-04-08T00:34:18.148Z,7.17
2018-04-08T00:34:30.301Z,7.17
2018-04-08T00:34:42.449Z,7.17
2018-04-08T00:34:54.609Z,7.17
2018-04-08T00:35:06.784Z,7.17
2018-04-08T00:35:18.934Z,7.17
2018-04-08T00:35:31.081Z,6.42
2018-04-08T00:35:43.270Z,6.42
2018-04-08T00:35:55.392Z,6.42
2018-04-08T00:36:07.555Z,6.42
2018-04-08T00:36:19.716Z,6.42
2018-04-08T00:36:31.892Z,6.42
2018-04-08T00:36:44.029Z,6.42
2018-04-08T00:36:56.168Z,6.42
2018-04-08T00:37:08.315Z,6.42
2018-04-08T00:37:20.457Z,6.42
2018-04-08T00:37:32.617Z,6.42
2018-04-08T00:37:44.784Z,6.42
2018-04-08T00:37:56.943Z,6.42
2018-04-08T00:38:09.099Z,6.42
2018-04-08T00:38:21.266Z,6.42
2018-04-08T00:38:33.449Z,6.42
2018-04-08T00:38:45.597Z,6.42
2018-04-08T00:38:57.750Z,6.42
2018-04-08T00:39:09.927Z,6.42
2018-04-08T00:39:22.087Z,6.42
2018-04-08T00:39:34.250Z,6.42
2018-04-08T00:39:46.419Z,6.42
2018-04-08T00:39:58.561Z,6.42
2018-04-08T00:40:10.782Z,6.42
2018-04-08T00:40:22.945Z,6.42
2018-04-08T00:40:35.092Z,6.42
2018-04-08T00:40:47.258Z,6.42
2018-04-08T00:40:59.408Z,6.42
2018-04-08T00:41:11.557Z,6.42
2018-04-08T00:41:23.693Z,6.42
2018-04-08T00:41:35.826Z,6.42
2018-04-08T00:41:47.971Z,6.42
2018-04-08T00:42:00.123Z,6.42
2018-04-08T00:42:12.368Z,6.42
2018-04-08T00:42:24.535Z,6.42
2018-04-08T00:42:36.715Z,6.42
2018-04-08T00:42:48.874Z,6.42
2018-04-08T00:43:01.030Z,6.42
2018-04-08T00:43:13.194Z,6.42
2018-04-08T00:43:25.357Z,6.42
2018-04-08T00:43:37.510Z,6.42
2018-04-08T00:43:49.635Z,6.42
2018-04-08T00:44:01.793Z,6.42
2018-04-08T00:44:13.945Z,6.42
2018-04-08T00:44:26.105Z,6.42
2018-04-08T00:44:38.262Z,6.42
2018-04-08T00:44:50.441Z,6.42
2018-04-08T00:45:02.605Z,6.42
2018-04-08T00:45:14.733Z,6.42
2018-04-08T00:45:26.879Z,6.45
2018-04-08T00:45:39.060Z,6.45
2018-04-08T00:45:51.205Z,6.45
2018-04-08T00:46:03.360Z,6.45
2018-04-08T00:46:15.656Z,6.45
2018-04-08T00:46:27.793Z,6.45
2018-04-08T00:46:39.958Z,6.45
2018-04-08T00:46:52.110Z,6.45
2018-04-08T00:47:04.276Z,6.45
2018-04-08T00:47:16.418Z,6.45
2018-04-08T00:47:28.585Z,6.45
2018-04-08T00:47:40.722Z,6.45
2018-04-08T00:47:52.869Z,6.45
2018-04-08T00:48:05.119Z,6.45
2018-04-08T00:48:17.274Z,6.45
2018-04-08T00:48:29.432Z,6.45
2018-04-08T00:48:41.595Z,6.45
2018-04-08T00:48:53.745Z,6.45
2018-04-08T00:49:05.912Z,6.45
2018-04-08T00:49:18.192Z,6.45
2018-04-08T00:49:30.542Z,6.45
2018-04-08T00:49:42.700Z,6.45
2018-04-08T00:49:54.882Z,6.45
2018-04-08T00:50:07.027Z,6.45
2018-04-08T00:50:19.168Z,6.45
2018-04-08T00:50:31.321Z,6.45
2018-04-08T00:50:43.476Z,6.45
2018-04-08T00:50:55.618Z,6.45
2018-04-08T00:51:07.780Z,6.45
2018-04-08T00:51:20.013Z,6.45
2018-04-08T00:51:32.338Z,6.45
2018-04-08T00:51:44.479Z,6.45
2018-04-08T00:51:56.641Z,6.45
2018-04-08T00:52:08.791Z,6.45
2018-04-08T00:52:20.924Z,6.45
2018-04-08T00:52:33.067Z,6.45
2018-04-08T00:52:45.217Z,6.45
2018-04-08T00:52:57.351Z,6.45
2018-04-08T00:53:09.512Z,6.45
2018-04-08T00:53:21.637Z,6.45
2018-04-08T00:53:33.764Z,6.45
2018-04-08T00:53:45.893Z,6.45
2018-04-08T00:53:58.031Z,6.45
2018-04-08T00:54:10.171Z,6.45
2018-04-08T00:54:22.301Z,6.45
2018-04-08T00:54:34.423Z,6.45
2018-04-08T00:54:46.564Z,6.45
2018-04-08T00:54:58.698Z,6.45
2018-04-08T00:55:10.857Z,6.45
2018-04-08T00:55:23.001Z,6.47
2018-04-08T00:55:35.126Z,6.47
2018-04-08T00:55:47.291Z,6.47
2018-04-08T00:55:59.433Z,6.47
2018-04-08T00:56:11.590Z,6.47
2018-04-08T00:56:23.728Z,6.47
2018-04-08T00:56:35.914Z,6.47
2018-04-08T00:56:48.052Z,6.47
2018-04-08T00:57:00.206Z,6.47
2018-04-08T00:57:12.376Z,6.47
2018-04-08T00:57:24.527Z,6.47
2018-04-08T00:57:36.673Z,6.47
2018-04-08T00:57:48.816Z,6.47
2018-04-08T00:58:00.974Z,6.47
2018-04-08T00:58:13.115Z,6.47
2018-04-08T00:58:25.272Z,6.47
2018-04-08T00:58:37.433Z,6.47
2018-04-08T00:58:49.574Z,6.47
2018-04-08T00:59:01.742Z,6.47
2018-04-08T00:59:13.886Z,6.47
2018-04-08T00:59:26.039Z,6.47
2018-04-08T00:59:38.201Z,6.47
2018-04-08T00:59:50.332Z,6.47
2018-04-08T01:00:02.489Z,6.47
2018-04-08T01:00:14.669Z,6.47
2018-04-08T01:00:26.830Z,6.47
2018-04-08T01:00:39.002Z,6.47
2018-04-08T01:00:51.180Z,6.47
2018-04-08T01:01:03.352Z,6.47
2018-04-08T01:01:15.528Z,6.47
2018-04-08T01:01:27.739Z,6.47
2018-04-08T01:01:39.899Z,6.47
2018-04-08T01:01:52.066Z,6.47
2018-04-08T01:02:04.241Z,6.47
2018-04-08T01:02:16.390Z,6.47
2018-04-08T01:02:28.548Z,6.47
2018-04-08T01:02:40.716Z,6.47
2018-04-08T01:02:52.866Z,6.47
2018-04-08T01:03:05.028Z,6.47
2018-04-08T01:03:17.242Z,6.47
2018-04-08T01:03:29.406Z,6.47
2018-04-08T01:03:41.566Z,6.47
2018-04-08T01:03:53.725Z,6.47
2018-04-08T01:04:05.875Z,6.47
2018-04-08T01:04:18.031Z,6.47
2018-04-08T01:04:30.196Z,6.47
2018-04-08T01:04:42.360Z,6.47
2018-04-08T01:04:54.654Z,6.47
2018-04-08T01:05:06.816Z,6.47
2018-04-08T01:05:18.984Z,6.47
2018-04-08T01:05:31.129Z,6.48
2018-04-08T01:05:43.254Z,6.48
2018-04-08T01:05:55.379Z,6.48
2018-04-08T01:06:07.536Z,6.48
2018-04-08T01:06:19.720Z,6.48
2018-04-08T01:06:31.885Z,6.48
2018-04-08T01:06:44.069Z,6.48
2018-04-08T01:06:56.215Z,6.48
2018-04-08T01:07:08.388Z,6.48
2018-04-08T01:07:20.542Z,6.48
2018-04-08T01:07:32.686Z,6.48
2018-04-08T01:07:44.838Z,6.48
2018-04-08T01:07:56.993Z,6.48
2018-04-08T01:08:09.143Z,6.48
2018-04-08T01:08:21.283Z,6.48
2018-04-08T01:08:33.435Z,6.48
2018-04-08T01:08:45.579Z,6.48
2018-04-08T01:08:57.716Z,6.48
2018-04-08T01:09:09.848Z,6.48
2018-04-08T01:09:22.023Z,6.48
2018-04-08T01:09:34.161Z,6.48
2018-04-08T01:09:46.312Z,6.48
2018-04-08T01:09:58.458Z,6.48
2018-04-08T01:10:10.614Z,6.48
2018-04-08T01:10:22.762Z,6.48
2018-04-08T01:10:34.897Z,6.48
2018-04-08T01:10:47.062Z,6.48
2018-04-08T01:10:59.204Z,6.48
2018-04-08T01:11:11.357Z,6.48
2018-04-08T01:11:23.506Z,6.48
2018-04-08T01:11:35.827Z,6.48
2018-04-08T01:11:47.990Z,6.48
2018-04-08T01:12:00.133Z,6.48
2018-04-08T01:12:12.295Z,6.48
2018-04-08T01:12:24.445Z,6.48
2018-04-08T01:12:36.604Z,6.48
2018-04-08T01:12:49.016Z,6.48
2018-04-08T01:13:01.220Z,6.48
2018-04-08T01:13:13.731Z,6.48
2018-04-08T01:13:25.855Z,6.48
2018-04-08T01:13:38.021Z,6.48
2018-04-08T01:13:50.463Z,6.48
2018-04-08T01:14:02.629Z,6.48
2018-04-08T01:14:14.773Z,6.48
2018-04-08T01:14:26.907Z,6.48
2018-04-08T01:14:39.072Z,6.48
2018-04-08T01:14:51.246Z,6.48
2018-04-08T01:15:03.397Z,6.48
2018-04-08T01:15:15.546Z,6.48
2018-04-08T01:15:27.711Z,5.95
2018-04-08T01:15:39.882Z,5.95
2018-04-08T01:15:52.033Z,5.95
2018-04-08T01:16:04.179Z,5.95
2018-04-08T01:16:16.330Z,5.95
2018-04-08T01:16:28.487Z,5.95
2018-04-08T01:16:40.640Z,5.95
2018-04-08T01:16:52.820Z,5.95
2018-04-08T01:17:05.027Z,5.95
2018-04-08T01:17:17.179Z,5.95
2018-04-08T01:17:29.355Z,5.95
2018-04-08T01:17:41.520Z,5.95
2018-04-08T01:17:53.801Z,5.95
2018-04-08T01:18:05.962Z,5.95
2018-04-08T01:18:18.149Z,5.95
2018-04-08T01:18:30.300Z,5.95
2018-04-08T01:18:42.471Z,5.95
2018-04-08T01:18:54.620Z,5.95
2018-04-08T01:19:06.770Z,5.95
2018-04-08T01:19:18.914Z,5.95
2018-04-08T01:19:31.069Z,5.95
2018-04-08T01:19:43.247Z,5.95
2018-04-08T01:19:55.412Z,5.95
2018-04-08T01:20:07.585Z,5.95
2018-04-08T01:20:19.724Z,5.95
2018-04-08T01:20:31.860Z,5.95
2018-04-08T01:20:43.992Z,5.95
2018-04-08T01:20:56.203Z,5.95
2018-04-08T01:21:08.330Z,5.95
2018-04-08T01:21:20.468Z,5.95
2018-04-08T01:21:32.616Z,5.95
2018-04-08T01:21:44.758Z,5.95
2018-04-08T01:21:56.921Z,5.95
2018-04-08T01:22:09.096Z,5.95
2018-04-08T01:22:21.235Z,5.95
2018-04-08T01:22:33.377Z,5.95
2018-04-08T01:22:45.538Z,5.95
2018-04-08T01:22:57.774Z,5.95
2018-04-08T01:23:09.942Z,5.95
2018-04-08T01:23:22.100Z,5.95
2018-04-08T01:23:34.259Z,5.95
2018-04-08T01:23:46.426Z,5.95
2018-04-08T01:23:58.566Z,5.95
2018-04-08T01:24:10.729Z,5.95
2018-04-08T01:24:22.914Z,5.95
2018-04-08T01:24:35.066Z,5.95
2018-04-08T01:24:47.236Z,5.95
2018-04-08T01:24:59.396Z,5.95
2018-04-08T01:25:11.564Z,5.95
2018-04-08T01:25:23.694Z,6.46
2018-04-08T01:25:35.820Z,6.46
2018-04-08T01:25:48.016Z,6.46
2018-04-08T01:26:00.177Z,6.46
2018-04-08T01:26:12.323Z,6.46
2018-04-08T01:26:24.478Z,6.46
2018-04-08T01:26:36.629Z,6.46
2018-04-08T01:26:48.773Z,6.46
2018-04-08T01:27:00.925Z,6.46
2018-04-08T01:27:13.099Z,6.46
2018-04-08T01:27:25.277Z,6.46
2018-04-08T01:27:37.416Z,6.46
2018-04-08T01:27:49.577Z,6.46
2018-04-08T01:28:01.747Z,6.46
2018-04-08T01:28:14.017Z,6.46
2018-04-08T01:28:26.153Z,6.46
2018-04-08T01:28:38.294Z,6.46
2018-04-08T01:28:50.421Z,6.46
2018-04-08T01:29:02.565Z,6.46
2018-04-08T01:29:14.724Z,6.46
2018-04-08T01:29:26.860Z,6.46
2018-04-08T01:29:38.987Z,6.46
2018-04-08T01:29:51.136Z,6.46
2018-04-08T01:30:03.297Z,6.46
2018-04-08T01:30:15.437Z,6.46
2018-04-08T01:30:27.584Z,6.46
2018-04-08T01:30:39.715Z,6.46
2018-04-08T01:30:51.861Z,6.46
2018-04-08T01:31:03.993Z,6.46
2018-04-08T01:31:16.141Z,6.46
2018-04-08T01:31:28.293Z,6.46
2018-04-08T01:31:40.474Z,6.46
2018-04-08T01:31:52.648Z,6.46
2018-04-08T01:32:04.792Z,6.46
2018-04-08T01:32:16.931Z,6.46
2018-04-08T01:32:29.095Z,6.46
2018-04-08T01:32:41.229Z,6.46
2018-04-08T01:32:53.476Z,6.46
2018-04-08T01:33:05.708Z,6.46
2018-04-08T01:33:17.864Z,6.46
2018-04-08T01:33:30.007Z,6.46
2018-04-08T01:33:42.147Z,6.46
2018-04-08T01:33:54.276Z,6.46
2018-04-08T01:34:06.426Z,6.46
2018-04-08T01:34:18.592Z,6.46
2018-04-08T01:34:30.754Z,6.46
2018-04-08T01:34:42.926Z,6.46
2018-04-08T01:34:55.089Z,6.46
2018-04-08T01:35:07.236Z,6.46
2018-04-08T01:35:19.392Z,6.46
2018-04-08T01:35:31.550Z,6.05
2018-04-08T01:35:43.709Z,6.05
2018-04-08T01:35:55.912Z,6.05
2018-04-08T01:36:08.082Z,6.05
2018-04-08T01:36:20.245Z,6.05
2018-04-08T01:36:32.399Z,6.05
2018-04-08T01:36:44.547Z,6.05
2018-04-08T01:36:56.685Z,6.05
2018-04-08T01:37:08.830Z,6.05
2018-04-08T01:37:20.987Z,6.05
2018-04-08T01:37:33.159Z,6.05
2018-04-08T01:37:45.304Z,6.05
2018-04-08T01:37:57.529Z,6.05
2018-04-08T01:38:09.686Z,6.05
2018-04-08T01:38:21.832Z,6.05
2018-04-08T01:38:33.974Z,6.05
2018-04-08T01:38:46.132Z,6.05
2018-04-08T01:38:58.304Z,6.05
2018-04-08T01:39:10.460Z,6.05
2018-04-08T01:39:22.597Z,6.05
2018-04-08T01:39:34.773Z,6.05
2018-04-08T01:39:46.907Z,6.05
2018-04-08T01:39:59.045Z,6.05
2018-04-08T01:40:11.199Z,6.05
2018-04-08T01:40:23.372Z,6.05
2018-04-08T01:40:35.514Z,6.05
2018-04-08T01:40:47.680Z,6.05
2018-04-08T01:40:59.829Z,6.05
2018-04-08T01:41:11.987Z,6.05
2018-04-08T01:41:24.130Z,6.05
2018-04-08T01:41:36.284Z,6.05
2018-04-08T01:41:48.431Z,6.05
2018-04-08T01:42:00.583Z,6.05
2018-04-08T01:42:12.717Z,6.05
2018-04-08T01:42:24.859Z,6.05
2018-04-08T01:42:36.969Z,6.05
2018-04-08T01:42:49.109Z,6.05
2018-04-08T01:43:01.338Z,6.05
2018-04-08T01:43:13.479Z,6.05
2018-04-08T01:43:25.644Z,6.05
2018-04-08T01:43:37.780Z,6.05
2018-04-08T01:43:49.942Z,6.05
2018-04-08T01:44:02.086Z,6.05
2018-04-08T01:44:14.237Z,6.05
2018-04-08T01:44:26.370Z,6.05
2018-04-08T01:44:38.517Z,6.05
2018-04-08T01:44:50.651Z,6.05
2018-04-08T01:45:02.791Z,6.05
2018-04-08T01:45:14.926Z,6.05
2018-04-08T01:45:27.092Z,6.1
2018-04-08T01:45:39.223Z,6.1
2018-04-08T01:45:51.379Z,6.1
2018-04-08T01:46:03.526Z,6.1
2018-04-08T01:46:15.969Z,6.1
2018-04-08T01:46:28.104Z,6.1
2018-04-08T01:46:40.231Z,6.1
2018-04-08T01:46:52.396Z,6.1
2018-04-08T01:47:04.548Z,6.1
2018-04-08T01:47:16.713Z,6.1
2018-04-08T01:47:28.871Z,6.1
2018-04-08T01:47:41.053Z,6.1
2018-04-08T01:47:53.202Z,6.1
2018-04-08T01:48:05.488Z,6.1
2018-04-08T01:48:17.621Z,6.1
2018-04-08T01:48:29.769Z,6.1
2018-04-08T01:48:41.916Z,6.1
2018-04-08T01:48:54.065Z,6.1
2018-04-08T01:49:06.257Z,6.1
2018-04-08T01:49:18.402Z,6.1
2018-04-08T01:49:30.740Z,6.1
2018-04-08T01:49:42.895Z,6.1
2018-04-08T01:49:55.044Z,6.1
2018-04-08T01:50:07.204Z,6.1
2018-04-08T01:50:19.360Z,6.1
2018-04-08T01:50:31.506Z,6.1
2018-04-08T01:50:43.668Z,6.1
2018-04-08T01:50:55.814Z,6.1
2018-04-08T01:51:07.963Z,6.1
2018-04-08T01:51:20.122Z,6.1
2018-04-08T01:51:32.513Z,6.1
2018-04-08T01:51:44.797Z,6.1
2018-04-08T01:51:56.937Z,6.1
2018-04-08T01:52:09.100Z,6.1
2018-04-08T01:52:21.264Z,6.1
2018-04-08T01:52:33.408Z,6.1
2018-04-08T01:52:45.557Z,6.1
2018-04-08T01:52:57.708Z,6.1
2018-04-08T01:53:09.845Z,6.1
2018-04-08T01:53:22.002Z,6.1
2018-04-08T01:53:34.193Z,6.1
2018-04-08T01:53:46.345Z,6.1
2018-04-08T01:53:58.506Z,6.1
2018-04-08T01:54:10.724Z,6.1
2018-04-08T01:54:22.863Z,6.1
2018-04-08T01:54:35.047Z,6.1
2018-04-08T01:54:47.244Z,6.1
2018-04-08T01:54:59.404Z,6.1
2018-04-08T01:55:11.533Z,6.1
2018-04-08T01:55:23.694Z,6.1
2018-04-08T01:55:35.843Z,6.48
2018-04-08T01:55:47.983Z,6.48
2018-04-08T01:56:00.145Z,6.48
2018-04-08T01:56:12.322Z,6.48
2018-04-08T01:56:24.461Z,6.48
2018-04-08T01:56:36.591Z,6.48
2018-04-08T01:56:48.743Z,6.48
2018-04-08T01:57:00.959Z,6.48
2018-04-08T01:57:13.085Z,6.48
2018-04-08T01:57:25.231Z,6.48
2018-04-08T01:57:37.389Z,6.48
2018-04-08T01:57:49.519Z,6.48
2018-04-08T01:58:01.698Z,6.48
2018-04-08T01:58:13.865Z,6.48
2018-04-08T01:58:26.025Z,6.48
2018-04-08T01:58:38.191Z,6.48
2018-04-08T01:58:50.393Z,6.48
2018-04-08T01:59:02.522Z,6.48
2018-04-08T01:59:14.674Z,6.48
2018-04-08T01:59:26.900Z,6.48
2018-04-08T01:59:39.050Z,6.48
2018-04-08T01:59:51.204Z,6.48
2018-04-08T02:00:03.373Z,6.48
2018-04-08T02:00:15.533Z,6.48
2018-04-08T02:00:27.708Z,6.48
2018-04-08T02:00:39.876Z,6.48
2018-04-08T02:00:52.053Z,6.48
2018-04-08T02:01:04.215Z,6.48
2018-04-08T02:01:16.421Z,6.48
2018-04-08T02:01:28.583Z,6.48
2018-04-08T02:01:40.751Z,6.48
2018-04-08T02:01:52.943Z,6.48
2018-04-08T02:02:05.096Z,6.48
2018-04-08T02:02:17.254Z,6.48
2018-04-08T02:02:29.449Z,6.48
2018-04-08T02:02:41.699Z,6.48
2018-04-08T02:02:53.859Z,6.48
2018-04-08T02:03:06.020Z,6.48
2018-04-08T02:03:18.189Z,6.48
2018-04-08T02:03:30.347Z,6.48
2018-04-08T02:03:42.552Z,6.48
2018-04-08T02:03:54.693Z,6.48
2018-04-08T02:04:06.835Z,6.48
2018-04-08T02:04:18.974Z,6.48
2018-04-08T02:04:31.142Z,6.48
2018-04-08T02:04:43.305Z,6.48
2018-04-08T02:04:55.448Z,6.48
2018-04-08T02:05:07.628Z,6.48
2018-04-08T02:05:19.738Z,6.48
2018-04-08T02:05:31.894Z,6.15
2018-04-08T02:05:44.043Z,6.15
2018-04-08T02:05:56.197Z,6.15
2018-04-08T02:06:08.340Z,6.15
2018-04-08T02:06:20.532Z,6.15
2018-04-08T02:06:32.688Z,6.15
2018-04-08T02:06:44.830Z,6.15
2018-04-08T02:06:56.955Z,6.15
2018-04-08T02:07:09.081Z,6.15
2018-04-08T02:07:21.214Z,6.15
2018-04-08T02:07:33.397Z,6.15
2018-04-08T02:07:45.712Z,6.15
2018-04-08T02:07:57.867Z,6.15
2018-04-08T02:08:10.014Z,6.15
2018-04-08T02:08:22.177Z,6.15
2018-04-08T02:08:34.301Z,6.15
2018-04-08T02:08:46.423Z,6.15
2018-04-08T02:08:58.577Z,6.15
2018-04-08T02:09:10.859Z,6.15
2018-04-08T02:09:23.044Z,6.15
2018-04-08T02:09:35.313Z,6.15
2018-04-08T02:09:47.465Z,6.15
2018-04-08T02:09:59.628Z,6.15
2018-04-08T02:10:11.792Z,6.15
2018-04-08T02:10:23.950Z,6.15
2018-04-08T02:10:36.072Z,6.15
2018-04-08T02:10:48.214Z,6.15
2018-04-08T02:11:00.332Z,6.15
2018-04-08T02:11:12.495Z,6.15
2018-04-08T02:11:24.661Z,6.15
2018-04-08T02:11:36.807Z,6.15
2018-04-08T02:11:48.985Z,6.15
2018-04-08T02:12:01.131Z,6.15
2018-04-08T02:12:13.265Z,6.15
2018-04-08T02:12:25.399Z,6.15
2018-04-08T02:12:37.594Z,6.15
2018-04-08T02:12:50.021Z,6.15
2018-04-08T02:13:02.168Z,6.15
2018-04-08T02:13:14.548Z,6.15
2018-04-08T02:13:26.699Z,6.15
2018-04-08T02:13:38.844Z,6.15
2018-04-08T02:13:51.249Z,6.15
2018-04-08T02:14:03.405Z,6.15
2018-04-08T02:14:15.547Z,6.15
2018-04-08T02:14:27.706Z,6.15
2018-04-08T02:14:39.868Z,6.15
2018-04-08T02:14:52.006Z,6.15
2018-04-08T02:15:04.172Z,6.15
2018-04-08T02:15:16.323Z,6.15
2018-04-08T02:15:28.461Z,6.29
2018-04-08T02:15:40.612Z,6.29
2018-04-08T02:15:52.759Z,6.29
2018-04-08T02:16:04.897Z,6.29
2018-04-08T02:16:17.052Z,6.29
2018-04-08T02:16:29.190Z,6.29
2018-04-08T02:16:41.349Z,6.29
2018-04-08T02:16:53.501Z,6.29
2018-04-08T02:17:05.667Z,6.29
2018-04-08T02:17:17.851Z,6.29
2018-04-08T02:17:29.992Z,6.29
2018-04-08T02:17:42.119Z,6.29
2018-04-08T02:17:54.466Z,6.29
2018-04-08T02:18:06.642Z,6.29
2018-04-08T02:18:18.784Z,6.29
2018-04-08T02:18:30.923Z,6.29
2018-04-08T02:18:43.095Z,6.29
2018-04-08T02:18:55.215Z,6.29
2018-04-08T02:19:07.353Z,6.29
2018-04-08T02:19:19.480Z,6.29
2018-04-08T02:19:31.845Z,6.29
2018-04-08T02:19:44.061Z,6.29
2018-04-08T02:19:56.209Z,6.29
2018-04-08T02:20:08.344Z,6.29
2018-04-08T02:20:20.494Z,6.29
2018-04-08T02:20:32.689Z,6.29
2018-04-08T02:20:44.824Z,6.29
2018-04-08T02:20:56.969Z,6.29
2018-04-08T02:21:09.108Z,6.29
2018-04-08T02:21:21.260Z,6.29
2018-04-08T02:21:33.390Z,6.29
2018-04-08T02:21:45.540Z,6.29
2018-04-08T02:21:57.688Z,6.29
2018-04-08T02:22:09.860Z,6.29
2018-04-08T02:22:22.181Z,6.29
2018-04-08T02:22:34.353Z,6.29
2018-04-08T02:22:46.485Z,6.29
2018-04-08T02:22:58.626Z,6.29
2018-04-08T02:23:10.784Z,6.29
2018-04-08T02:23:22.947Z,6.29
2018-04-08T02:23:35.090Z,6.29
2018-04-08T02:23:47.229Z,6.29
2018-04-08T02:23:59.371Z,6.29
2018-04-08T02:24:11.518Z,6.29
2018-04-08T02:24:23.651Z,6.29
2018-04-08T02:24:35.780Z,6.29
2018-04-08T02:24:47.934Z,6.29
2018-04-08T02:25:00.075Z,6.29
2018-04-08T02:25:12.196Z,6.29
2018-04-08T02:25:24.322Z,6.29
2018-04-08T02:25:36.473Z,5.42
2018-04-08T02:25:48.632Z,5.42
2018-04-08T02:26:00.766Z,5.42
2018-04-08T02:26:12.917Z,5.42
2018-04-08T02:26:25.049Z,5.42
2018-04-08T02:26:37.205Z,5.42
2018-04-08T02:26:49.326Z,5.42
2018-04-08T02:27:01.498Z,5.42
2018-04-08T02:27:13.655Z,5.42
2018-04-08T02:27:25.836Z,5.42
2018-04-08T02:27:37.981Z,5.42
2018-04-08T02:27:50.134Z,5.42
2018-04-08T02:28:02.309Z,5.42
2018-04-08T02:28:14.445Z,5.42
2018-04-08T02:28:26.587Z,5.42
2018-04-08T02:28:38.773Z,5.42
2018-04-08T02:28:50.896Z,5.42
2018-04-08T02:29:03.030Z,5.42
2018-04-08T02:29:15.206Z,5.42
2018-04-08T02:29:27.376Z,5.42
2018-04-08T02:29:39.539Z,5.42
2018-04-08T02:29:51.696Z,5.42
2018-04-08T02:30:03.863Z,5.42
2018-04-08T02:30:16.058Z,5.42
2018-04-08T02:30:28.248Z,5.42
2018-04-08T02:30:40.448Z,5.42
2018-04-08T02:30:52.643Z,5.42
2018-04-08T02:31:04.851Z,5.42
2018-04-08T02:31:17.024Z,5.42
2018-04-08T02:31:29.199Z,5.42
2018-04-08T02:31:41.426Z,5.42
2018-04-08T02:31:53.599Z,5.42
2018-04-08T02:32:05.775Z,5.42
2018-04-08T02:32:18.026Z,5.42
2018-04-08T02:32:30.209Z,5.42
2018-04-08T02:32:42.422Z,5.42
2018-04-08T02:32:54.599Z,5.42
2018-04-08T02:33:06.813Z,5.42
2018-04-08T02:33:19.021Z,5.42
2018-04-08T02:33:31.221Z,5.42
2018-04-08T02:33:43.403Z,5.42
2018-04-08T02:33:55.600Z,5.42
2018-04-08T02:34:07.793Z,5.42
2018-04-08T02:34:19.943Z,5.42
2018-04-08T02:34:32.122Z,5.42
2018-04-08T02:34:44.310Z,5.42
2018-04-08T02:34:56.479Z,5.42
2018-04-08T02:35:08.655Z,5.42
2018-04-08T02:35:20.824Z,5.42
2018-04-08T02:35:32.999Z,5.88
2018-04-08T02:35:45.193Z,5.88
2018-04-08T02:35:57.364Z,5.88
2018-04-08T02:36:09.554Z,5.88
2018-04-08T02:36:21.723Z,5.88
2018-04-08T02:36:34.004Z,5.88
2018-04-08T02:36:46.202Z,5.88
2018-04-08T02:36:58.367Z,5.88
2018-04-08T02:37:10.753Z,5.88
2018-04-08T02:37:22.929Z,5.88
2018-04-08T02:37:35.164Z,5.88
2018-04-08T02:37:47.370Z,5.88
2018-04-08T02:37:59.538Z,5.88
2018-04-08T02:38:11.710Z,5.88
2018-04-08T02:38:23.882Z,5.88
2018-04-08T02:38:36.069Z,5.88
2018-04-08T02:38:48.251Z,5.88
2018-04-08T02:39:00.421Z,5.88
2018-04-08T02:39:12.607Z,5.88
2018-04-08T02:39:24.805Z,5.88
2018-04-08T02:39:36.994Z,5.88
2018-04-08T02:39:49.163Z,5.88
2018-04-08T02:40:01.306Z,5.88
2018-04-08T02:40:13.502Z,5.88
2018-04-08T02:40:25.670Z,5.88
2018-04-08T02:40:37.839Z,5.88
2018-04-08T02:40:50.072Z,5.88
2018-04-08T02:41:02.251Z,5.88
2018-04-08T02:41:14.399Z,5.88
2018-04-08T02:41:26.580Z,5.88
2018-04-08T02:41:38.757Z,5.88
2018-04-08T02:41:50.908Z,5.88
2018-04-08T02:42:03.062Z,5.88
2018-04-08T02:42:15.285Z,5.88